createdAt,value
2019-06-01T00:01:44.633Z,13.85
2019-06-01T00:04:12.604Z,13.87
2019-06-01T00:06:40.739Z,13.91
2019-06-01T00:09:08.887Z,13.95
2019-06-01T00:11:36.240Z,13.95
2019-06-01T00:14:05.383Z,13.82
2019-06-01T00:16:32.651Z,13.83
2019-06-01T00:18:59.926Z,13.83
2019-06-01T00:21:27.175Z,13.88
2019-06-01T00:23:54.426Z,13.74
2019-06-01T00:26:21.770Z,13.74
2019-06-01T00:28:50.023Z,13.83
2019-06-01T00:31:17.372Z,13.95
2019-06-01T00:33:45.467Z,13.85
2019-06-01T00:36:12.874Z,13.90
2019-06-01T00:38:41.500Z,13.97
2019-06-01T00:41:08.987Z,13.97
2019-06-01T00:43:36.313Z,14.02
2019-06-01T00:46:03.671Z,14.04
2019-06-01T00:48:30.927Z,14.05
2019-06-01T00:50:58.184Z,14.07
2019-06-01T00:53:25.532Z,14.00
2019-06-01T00:55:53.638Z,14.00
2019-06-01T00:58:21.026Z,13.89
2019-06-01T01:00:49.444Z,13.82
2019-06-01T01:03:17.562Z,13.91
2019-06-01T01:05:44.796Z,13.89
2019-06-01T01:08:12.036Z,13.82
2019-06-01T01:10:39.287Z,13.90
2019-06-01T01:13:13.355Z,13.85
2019-06-01T01:15:40.611Z,13.85
2019-06-01T01:18:07.982Z,13.93
2019-06-01T01:20:35.655Z,13.90
2019-06-01T01:23:03.023Z,13.84
2019-06-01T01:25:30.290Z,13.96
2019-06-01T01:27:57.513Z,13.88
2019-06-01T01:30:24.782Z,13.99
2019-06-01T01:32:53.330Z,13.89
2019-06-01T01:35:20.847Z,13.80
2019-06-01T01:37:48.083Z,13.76
2019-06-01T01:40:15.377Z,13.70
2019-06-01T01:42:42.691Z,13.68
2019-06-01T01:45:10.213Z,13.72
2019-06-01T01:47:37.479Z,13.66
2019-06-01T01:50:05.016Z,13.67
2019-06-01T01:52:32.317Z,13.62
2019-06-01T01:54:59.551Z,13.59
2019-06-01T01:57:26.803Z,13.58
2019-06-01T01:59:55.300Z,13.56
2019-06-01T02:02:22.629Z,13.51
2019-06-01T02:04:49.855Z,13.52
2019-06-01T02:07:17.082Z,13.50
2019-06-01T02:09:44.320Z,13.51
2019-06-01T02:12:11.540Z,13.54
2019-06-01T02:14:38.811Z,13.57
2019-06-01T02:17:06.025Z,13.47
2019-06-01T02:19:36.444Z,13.54
2019-06-01T02:22:03.687Z,13.53
2019-06-01T02:24:31.100Z,13.54
2019-06-01T02:26:59.321Z,13.54
2019-06-01T02:29:26.676Z,13.58
2019-06-01T02:31:54.675Z,13.59
2019-06-01T02:34:22.094Z,13.61
2019-06-01T02:36:49.328Z,13.65
2019-06-01T02:39:17.071Z,13.64
2019-06-01T02:41:44.485Z,13.66
2019-06-01T02:44:11.715Z,13.65
2019-06-01T02:46:38.932Z,13.51
2019-06-01T02:49:06.472Z,13.45
2019-06-01T02:51:33.819Z,13.43
2019-06-01T02:54:01.698Z,13.46
2019-06-01T02:56:30.128Z,13.54
2019-06-01T02:58:58.265Z,13.66
2019-06-01T03:01:33.551Z,13.65
2019-06-01T03:04:05.224Z,13.48
2019-06-01T03:06:33.108Z,13.47
2019-06-01T03:09:01.856Z,13.64
2019-06-01T03:11:33.792Z,13.77
2019-06-01T03:14:04.501Z,13.78
2019-06-01T03:16:32.482Z,13.81
2019-06-01T03:19:01.909Z,13.90
2019-06-01T03:21:31.132Z,13.90
2019-06-01T03:24:05.985Z,13.79
2019-06-01T03:26:39.425Z,13.79
2019-06-01T03:29:09.508Z,13.61
2019-06-01T03:31:36.854Z,13.61
2019-06-01T03:34:06.392Z,13.76
2019-06-01T03:36:33.228Z,13.79
2019-06-01T03:39:00.477Z,13.71
2019-06-01T03:41:27.753Z,13.76
2019-06-01T03:43:54.989Z,13.80
2019-06-01T03:46:22.223Z,14.09
2019-06-01T03:48:49.556Z,14.19
2019-06-01T03:51:16.803Z,14.32
2019-06-01T03:53:44.032Z,14.41
2019-06-01T03:56:11.267Z,14.36
2019-06-01T03:58:38.492Z,14.51
2019-06-01T04:01:07.058Z,14.64
2019-06-01T04:03:34.533Z,14.60
2019-06-01T04:06:01.784Z,14.57
2019-06-01T04:08:30.012Z,14.58
2019-06-01T04:10:57.278Z,14.45
2019-06-01T04:13:24.498Z,14.42
2019-06-01T04:15:51.722Z,14.31
2019-06-01T04:18:18.991Z,14.31
2019-06-01T04:20:46.235Z,14.38
2019-06-01T04:23:13.488Z,14.33
2019-06-01T04:25:40.740Z,14.45
2019-06-01T04:28:12.580Z,14.45
2019-06-01T04:30:39.994Z,14.44
2019-06-01T04:33:08.966Z,14.50
2019-06-01T04:35:37.312Z,14.61
2019-06-01T04:38:05.543Z,14.61
2019-06-01T04:40:32.827Z,14.71
2019-06-01T04:43:00.050Z,14.76
2019-06-01T04:45:27.272Z,14.79
2019-06-01T04:47:54.522Z,14.83
2019-06-01T04:50:21.808Z,15.00
2019-06-01T04:52:49.048Z,15.18
2019-06-01T04:55:16.285Z,15.46
2019-06-01T04:57:43.541Z,15.69
2019-06-01T05:00:24.193Z,15.86
2019-06-01T05:02:41.246Z,16.02
2019-06-01T05:05:09.400Z,16.16
2019-06-01T05:07:36.919Z,16.37
2019-06-01T05:10:05.159Z,16.52
2019-06-01T05:12:32.447Z,16.69
2019-06-01T05:14:59.715Z,16.97
2019-06-01T05:17:26.957Z,17.13
2019-06-01T05:19:54.192Z,17.23
2019-06-01T05:22:21.482Z,17.49
2019-06-01T05:24:48.728Z,17.73
2019-06-01T05:27:17.227Z,17.75
2019-06-01T05:29:44.746Z,17.98
2019-06-01T05:32:12.602Z,18.22
2019-06-01T05:34:39.962Z,18.49
2019-06-01T05:37:08.411Z,18.83
2019-06-01T05:39:35.815Z,18.95
2019-06-01T05:42:03.075Z,19.00
2019-06-01T05:44:30.329Z,19.06
2019-06-01T05:46:57.701Z,19.09
2019-06-01T05:49:24.967Z,19.42
2019-06-01T05:51:52.195Z,19.95
2019-06-01T05:54:19.461Z,20.46
2019-06-01T05:56:46.706Z,20.53
2019-06-01T05:59:13.975Z,20.79
2019-06-01T06:01:41.293Z,20.86
2019-06-01T06:04:08.528Z,21.05
2019-06-01T06:06:35.784Z,21.43
2019-06-01T06:09:05.085Z,21.64
2019-06-01T06:11:32.356Z,21.57
2019-06-01T06:13:59.636Z,21.50
2019-06-01T06:16:26.910Z,21.45
2019-06-01T06:18:54.159Z,21.94
2019-06-01T06:21:22.425Z,22.11
2019-06-01T06:23:49.961Z,22.32
2019-06-01T06:26:18.670Z,22.34
2019-06-01T06:28:46.392Z,22.25
2019-06-01T06:31:14.934Z,22.39
2019-06-01T06:33:55.390Z,22.65
2019-06-01T06:36:11.531Z,22.57
2019-06-01T06:38:38.813Z,22.19
2019-06-01T06:41:06.053Z,21.90
2019-06-01T06:43:33.524Z,21.66
2019-06-01T06:46:00.877Z,21.59
2019-06-01T06:48:28.150Z,21.73
2019-06-01T06:50:55.402Z,21.84
2019-06-01T06:53:32.770Z,22.07
2019-06-01T06:55:51.918Z,21.62
2019-06-01T06:58:20.921Z,21.63
2019-06-01T07:00:48.344Z,21.68
2019-06-01T07:03:16.807Z,21.66
2019-06-01T07:08:11.183Z,22.49
2019-06-01T07:10:38.467Z,22.71
2019-06-01T07:13:05.727Z,22.85
2019-06-01T07:15:32.983Z,22.40
2019-06-01T07:18:00.311Z,22.32
2019-06-01T07:20:27.929Z,22.71
2019-06-01T07:22:55.271Z,22.71
2019-06-01T07:25:22.514Z,23.12
2019-06-01T07:27:52.334Z,23.46
2019-06-01T07:30:20.062Z,23.89
2019-06-01T07:32:47.435Z,23.75
2019-06-01T07:35:14.700Z,23.96
2019-06-01T07:37:41.937Z,24.01
2019-06-01T07:40:13.299Z,23.86
2019-06-01T07:42:38.371Z,23.72
2019-06-01T07:45:05.670Z,23.87
2019-06-01T07:47:34.027Z,24.31
2019-06-01T07:50:01.565Z,24.70
2019-06-01T07:52:28.911Z,24.93
2019-06-01T07:54:56.156Z,24.89
2019-06-01T07:57:23.629Z,24.67
2019-06-01T07:59:50.953Z,24.71
2019-06-01T08:02:18.263Z,25.23
2019-06-01T08:04:53.208Z,25.35
2019-06-01T08:07:14.819Z,25.30
2019-06-01T08:09:43.050Z,25.42
2019-06-01T08:12:10.323Z,25.50
2019-06-01T08:14:37.608Z,25.51
2019-06-01T08:17:04.831Z,26.11
2019-06-01T08:19:35.468Z,26.50
2019-06-01T08:22:02.892Z,26.50
2019-06-01T08:24:30.335Z,26.98
2019-06-01T08:26:57.598Z,27.29
2019-06-01T08:29:24.860Z,27.52
2019-06-01T08:31:55.586Z,27.72
2019-06-01T08:34:21.275Z,27.50
2019-06-01T08:36:48.548Z,26.97
2019-06-01T08:39:15.808Z,26.43
2019-06-01T08:41:43.165Z,26.79
2019-06-01T08:44:10.470Z,26.50
2019-06-01T08:46:37.717Z,25.88
2019-06-01T08:49:04.957Z,25.92
2019-06-01T08:51:32.217Z,25.72
2019-06-01T08:53:59.475Z,25.89
2019-06-01T08:56:28.142Z,26.98
2019-06-01T08:58:55.515Z,27.00
2019-06-01T09:01:22.779Z,27.14
2019-06-01T09:03:50.032Z,27.08
2019-06-01T09:06:17.286Z,26.47
2019-06-01T09:08:44.539Z,26.40
2019-06-01T09:11:11.827Z,26.61
2019-06-01T09:13:39.087Z,26.66
2019-06-01T09:16:06.373Z,26.66
2019-06-01T09:18:33.788Z,26.70
2019-06-01T09:21:00.996Z,26.70
2019-06-01T09:23:29.542Z,27.04
2019-06-01T09:25:56.855Z,26.63
2019-06-01T09:28:24.147Z,26.63
2019-06-01T09:30:51.406Z,26.51
2019-06-01T09:33:18.669Z,26.27
2019-06-01T09:35:55.537Z,25.62
2019-06-01T09:38:15.201Z,25.04
2019-06-01T09:40:42.518Z,25.01
2019-06-01T09:43:09.851Z,25.72
2019-06-01T09:45:38.265Z,26.11
2019-06-01T09:48:05.872Z,26.37
2019-06-01T09:50:33.471Z,26.37
2019-06-01T09:53:00.785Z,27.10
2019-06-01T09:55:30.388Z,27.10
2019-06-01T09:57:57.352Z,27.72
2019-06-01T10:00:24.699Z,28.03
2019-06-01T10:02:52.100Z,28.30
2019-06-01T10:05:19.333Z,28.23
2019-06-01T10:07:46.591Z,28.07
2019-06-01T10:10:13.976Z,27.84
2019-06-01T10:12:42.265Z,26.93
2019-06-01T10:15:10.026Z,27.01
2019-06-01T10:17:37.298Z,27.23
2019-06-01T10:20:04.683Z,27.42
2019-06-01T10:22:33.123Z,28.29
2019-06-01T10:25:00.474Z,28.80
2019-06-01T10:27:27.732Z,28.58
2019-06-01T10:29:55.105Z,28.02
2019-06-01T10:32:22.351Z,28.24
2019-06-01T10:34:49.648Z,28.77
2019-06-01T10:37:17.050Z,28.88
2019-06-01T10:39:44.270Z,29.21
2019-06-01T10:42:11.525Z,28.95
2019-06-01T10:44:44.046Z,28.61
2019-06-01T10:47:08.067Z,28.34
2019-06-01T10:49:35.923Z,28.88
2019-06-01T10:52:03.374Z,28.91
2019-06-01T10:54:32.762Z,29.19
2019-06-01T10:56:59.813Z,29.63
2019-06-01T10:59:27.544Z,29.93
2019-06-01T11:01:55.205Z,29.48
2019-06-01T11:04:22.950Z,29.25
2019-06-01T11:06:51.189Z,29.80
2019-06-01T11:09:19.565Z,29.54
2019-06-01T11:11:46.785Z,29.76
2019-06-01T11:14:14.104Z,30.28
2019-06-01T11:16:41.891Z,30.09
2019-06-01T11:19:09.228Z,30.41
2019-06-01T11:21:37.441Z,29.34
2019-06-01T11:24:05.797Z,29.30
2019-06-01T11:26:33.344Z,28.87
2019-06-01T11:29:00.613Z,29.07
2019-06-01T11:31:27.883Z,29.49
2019-06-01T11:33:55.155Z,30.17
2019-06-01T11:36:22.396Z,30.81
2019-06-01T11:38:49.656Z,31.82
2019-06-01T11:41:18.659Z,32.58
2019-06-01T11:43:49.123Z,32.67
2019-06-01T11:46:16.403Z,32.02
2019-06-01T11:48:45.249Z,31.97
2019-06-01T11:51:12.716Z,31.45
2019-06-01T11:53:41.510Z,32.58
2019-06-01T11:56:08.944Z,31.73
2019-06-01T11:58:37.162Z,31.94
2019-06-01T12:01:04.554Z,31.72
2019-06-01T12:03:31.918Z,32.08
2019-06-01T12:05:59.163Z,32.48
2019-06-01T12:08:26.457Z,32.94
2019-06-01T12:10:53.683Z,32.91
2019-06-01T12:13:20.925Z,32.44
2019-06-01T12:15:48.216Z,32.73
2019-06-01T12:18:15.443Z,32.80
2019-06-01T12:20:42.911Z,32.65
2019-06-01T12:23:10.190Z,32.83
2019-06-01T12:25:38.215Z,33.02
2019-06-01T12:28:05.595Z,34.70
2019-06-01T12:30:32.916Z,34.18
2019-06-01T12:33:00.192Z,34.09
2019-06-01T12:35:27.452Z,34.99
2019-06-01T12:38:05.379Z,35.67
2019-06-01T12:40:24.006Z,36.24
2019-06-01T12:42:51.956Z,36.07
2019-06-01T12:45:22.635Z,34.71
2019-06-01T12:47:53.586Z,34.44
2019-06-01T12:50:17.660Z,35.41
2019-06-01T12:52:44.874Z,35.88
2019-06-01T12:55:12.156Z,34.78
2019-06-01T12:57:40.709Z,35.04
2019-06-01T13:00:09.284Z,35.40
2019-06-01T13:02:36.563Z,36.14
2019-06-01T13:05:04.785Z,35.78
2019-06-01T13:07:32.058Z,35.49
2019-06-01T13:09:59.441Z,35.84
2019-06-01T13:12:26.838Z,35.12
2019-06-01T13:14:54.182Z,36.33
2019-06-01T13:17:21.436Z,35.90
2019-06-01T13:19:49.561Z,35.39
2019-06-01T13:22:17.050Z,35.97
2019-06-01T13:24:45.637Z,36.34
2019-06-01T13:27:13.208Z,36.71
2019-06-01T13:29:41.617Z,37.33
2019-06-01T13:32:09.109Z,38.14
2019-06-01T13:34:36.377Z,38.52
2019-06-01T13:37:03.703Z,37.48
2019-06-01T13:39:32.010Z,37.13
2019-06-01T13:41:59.488Z,38.50
2019-06-01T13:44:26.809Z,38.03
2019-06-01T13:46:54.221Z,37.08
2019-06-01T13:49:23.498Z,36.14
2019-06-01T13:51:50.794Z,36.33
2019-06-01T13:54:18.106Z,35.73
2019-06-01T13:56:46.449Z,34.29
2019-06-01T13:59:14.074Z,35.65
2019-06-01T14:01:41.410Z,36.82
2019-06-01T14:04:08.677Z,37.09
2019-06-01T14:06:35.979Z,36.48
2019-06-01T14:09:05.006Z,37.13
2019-06-01T14:11:32.288Z,38.10
2019-06-01T14:13:59.549Z,37.69
2019-06-01T14:16:26.826Z,36.92
2019-06-01T14:18:54.285Z,37.76
2019-06-01T14:21:21.564Z,37.86
2019-06-01T14:23:50.023Z,38.05
2019-06-01T14:26:17.427Z,37.56
2019-06-01T14:28:46.118Z,38.70
2019-06-01T14:31:13.534Z,39.04
2019-06-01T14:33:40.809Z,39.99
2019-06-01T14:36:09.053Z,39.89
2019-06-01T14:38:46.547Z,38.82
2019-06-01T14:41:05.541Z,38.08
2019-06-01T14:43:32.901Z,38.38
2019-06-01T14:46:00.159Z,38.57
2019-06-01T14:48:27.495Z,39.33
2019-06-01T14:50:55.822Z,39.43
2019-06-01T14:53:23.351Z,39.99
2019-06-01T14:55:51.717Z,40.60
2019-06-01T14:58:20.554Z,41.23
2019-06-01T15:00:48.425Z,41.43
2019-06-01T15:03:15.723Z,41.45
2019-06-01T15:05:44.041Z,39.32
2019-06-01T15:08:11.332Z,39.58
2019-06-01T15:10:38.607Z,40.02
2019-06-01T15:13:05.888Z,38.35
2019-06-01T15:15:33.169Z,38.38
2019-06-01T15:18:04.827Z,37.71
2019-06-01T15:20:29.914Z,38.34
2019-06-01T15:22:58.412Z,36.11
2019-06-01T15:25:25.747Z,36.97
2019-06-01T15:27:53.010Z,36.47
2019-06-01T15:30:20.264Z,36.38
2019-06-01T15:32:47.505Z,36.74
2019-06-01T15:35:15.206Z,37.70
2019-06-01T15:37:42.491Z,37.54
2019-06-01T15:40:11.170Z,37.90
2019-06-01T15:42:38.424Z,36.54
2019-06-01T15:45:05.865Z,35.26
2019-06-01T15:47:33.142Z,33.87
2019-06-01T15:50:00.416Z,32.52
2019-06-01T15:52:27.730Z,33.33
2019-06-01T15:54:56.164Z,33.57
2019-06-01T15:57:23.509Z,32.78
2019-06-01T15:59:50.776Z,33.74
2019-06-01T16:02:18.020Z,33.93
2019-06-01T16:04:45.390Z,34.20
2019-06-01T16:07:13.652Z,33.55
2019-06-01T16:09:43.137Z,32.79
2019-06-01T16:12:10.201Z,32.60
2019-06-01T16:14:37.520Z,32.35
2019-06-01T16:17:04.896Z,33.29
2019-06-01T16:19:33.285Z,33.62
2019-06-01T16:22:00.571Z,34.08
2019-06-01T16:24:27.846Z,34.53
2019-06-01T16:26:56.284Z,34.41
2019-06-01T16:29:23.706Z,35.55
2019-06-01T16:31:50.980Z,35.92
2019-06-01T16:34:18.238Z,35.23
2019-06-01T16:36:45.531Z,35.39
2019-06-01T16:39:12.810Z,35.90
2019-06-01T16:41:40.227Z,36.01
2019-06-01T16:44:07.596Z,35.08
2019-06-01T16:46:34.861Z,33.85
2019-06-01T16:49:02.134Z,33.37
2019-06-01T16:51:49.429Z,32.34
2019-06-01T16:54:16.749Z,31.90
2019-06-01T16:56:44.000Z,31.42
2019-06-01T16:59:11.505Z,31.04
2019-06-01T17:01:39.411Z,30.51
2019-06-01T17:04:07.352Z,30.32
2019-06-01T17:06:36.748Z,30.17
2019-06-01T17:09:07.033Z,30.30
2019-06-01T17:11:34.541Z,31.73
2019-06-01T17:14:02.939Z,32.55
2019-06-01T17:16:30.314Z,32.20
2019-06-01T17:18:58.896Z,32.17
2019-06-01T17:21:26.282Z,31.57
2019-06-01T17:23:54.782Z,31.13
2019-06-01T17:26:22.050Z,30.57
2019-06-01T17:28:49.343Z,30.35
2019-06-01T17:31:16.568Z,30.02
2019-06-01T17:33:43.919Z,29.36
2019-06-01T17:36:11.205Z,29.39
2019-06-01T17:38:38.495Z,29.44
2019-06-01T17:41:06.368Z,29.64
2019-06-01T17:43:33.744Z,29.89
2019-06-01T17:46:01.006Z,30.53
2019-06-01T17:48:28.335Z,30.77
2019-06-01T17:50:55.714Z,30.33
2019-06-01T17:53:23.045Z,29.94
2019-06-01T17:55:50.432Z,29.66
2019-06-01T17:58:17.882Z,29.38
2019-06-01T18:00:45.111Z,29.31
2019-06-01T18:03:12.465Z,29.28
2019-06-01T18:05:39.752Z,29.36
2019-06-01T18:08:08.149Z,29.55
2019-06-01T18:10:50.207Z,29.55
2019-06-01T18:13:06.336Z,29.01
2019-06-01T18:15:33.758Z,28.67
2019-06-01T18:18:02.295Z,28.33
2019-06-01T18:20:29.734Z,28.00
2019-06-01T18:22:56.990Z,27.72
2019-06-01T18:25:25.591Z,27.27
2019-06-01T18:27:53.069Z,26.92
2019-06-01T18:30:21.072Z,26.61
2019-06-01T18:32:48.443Z,26.17
2019-06-01T18:35:19.474Z,25.86
2019-06-01T18:37:45.963Z,25.71
2019-06-01T18:40:13.940Z,25.45
2019-06-01T18:42:41.562Z,25.39
2019-06-01T18:45:09.760Z,25.07
2019-06-01T18:47:37.300Z,24.83
2019-06-01T18:50:05.821Z,24.57
2019-06-01T18:52:33.319Z,24.32
2019-06-01T18:55:00.553Z,24.11
2019-06-01T18:57:28.266Z,23.85
2019-06-01T18:59:55.622Z,23.59
2019-06-01T19:02:22.947Z,23.35
2019-06-01T19:04:50.301Z,23.10
2019-06-01T19:07:17.542Z,22.75
2019-06-01T19:09:44.816Z,22.60
2019-06-01T19:12:12.117Z,22.27
2019-06-01T19:14:39.360Z,21.94
2019-06-01T19:17:06.623Z,21.73
2019-06-01T19:19:33.904Z,21.53
2019-06-01T19:22:01.204Z,21.39
2019-06-01T19:24:28.434Z,21.23
2019-06-01T19:26:55.752Z,21.09
2019-06-01T19:29:23.144Z,20.88
2019-06-01T19:31:50.464Z,20.63
2019-06-01T19:34:17.825Z,20.51
2019-06-01T19:36:45.899Z,20.29
2019-06-01T19:39:13.414Z,20.03
2019-06-01T19:41:44.875Z,19.79
2019-06-01T19:44:10.099Z,19.63
2019-06-01T19:46:37.487Z,19.38
2019-06-01T19:49:04.951Z,19.25
2019-06-01T19:51:32.216Z,19.13
2019-06-01T19:53:59.522Z,19.02
2019-06-01T19:56:27.182Z,18.96
2019-06-01T19:58:54.582Z,18.90
2019-06-01T20:01:22.668Z,18.78
2019-06-01T20:03:50.172Z,18.70
2019-06-01T20:06:17.445Z,18.62
2019-06-01T20:08:44.819Z,18.48
2019-06-01T20:11:13.145Z,18.40
2019-06-01T20:13:40.561Z,18.44
2019-06-01T20:16:08.012Z,18.37
2019-06-01T20:18:35.308Z,18.40
2019-06-01T20:21:02.558Z,18.60
2019-06-01T20:23:30.942Z,18.50
2019-06-01T20:25:58.178Z,18.31
2019-06-01T20:28:25.583Z,17.95
2019-06-01T20:30:52.978Z,17.88
2019-06-01T20:33:20.564Z,17.85
2019-06-01T20:35:47.973Z,17.58
2019-06-01T20:38:16.608Z,17.48
2019-06-01T20:40:45.067Z,17.41
2019-06-01T20:43:12.448Z,17.36
2019-06-01T20:45:39.899Z,17.45
2019-06-01T20:48:07.272Z,17.40
2019-06-01T20:50:35.559Z,17.31
2019-06-01T20:53:02.936Z,17.22
2019-06-01T20:55:30.229Z,17.17
2019-06-01T20:57:57.647Z,17.07
2019-06-01T21:00:25.730Z,16.99
2019-06-01T21:02:52.966Z,16.97
2019-06-01T21:05:20.337Z,16.95
2019-06-01T21:07:47.625Z,16.93
2019-06-01T21:10:16.140Z,17.01
2019-06-01T21:12:45.715Z,16.82
2019-06-01T21:15:15.080Z,16.84
2019-06-01T21:17:42.708Z,16.80
2019-06-01T21:20:10.642Z,16.74
2019-06-01T21:22:38.050Z,16.70
2019-06-01T21:25:05.548Z,16.40
2019-06-01T21:27:32.974Z,16.51
2019-06-01T21:30:00.379Z,16.51
2019-06-01T21:32:27.839Z,16.44
2019-06-01T21:34:55.169Z,16.42
2019-06-01T21:37:23.484Z,16.43
2019-06-01T21:39:50.873Z,16.49
2019-06-01T21:42:19.572Z,16.38
2019-06-01T21:44:46.994Z,16.40
2019-06-01T21:47:15.549Z,16.34
2019-06-01T21:49:42.907Z,16.45
2019-06-01T21:52:10.193Z,16.41
2019-06-01T21:54:37.454Z,16.31
2019-06-01T21:57:04.699Z,16.42
2019-06-01T21:59:32.055Z,16.44
2019-06-01T22:01:59.380Z,16.57
2019-06-01T22:04:27.266Z,16.41
2019-06-01T22:06:54.593Z,16.42
2019-06-01T22:09:23.250Z,16.35
2019-06-01T22:11:50.829Z,16.31
2019-06-01T22:14:19.326Z,16.28
2019-06-01T22:16:46.672Z,16.14
2019-06-01T22:19:13.917Z,16.18
2019-06-01T22:21:41.166Z,16.07
2019-06-01T22:24:08.560Z,16.17
2019-06-01T22:26:35.839Z,16.12
2019-06-01T22:29:03.240Z,16.10
2019-06-01T22:31:30.534Z,15.97
2019-06-01T22:33:57.916Z,15.91
2019-06-01T22:36:25.217Z,15.98
2019-06-01T22:38:52.464Z,15.90
2019-06-01T22:41:19.970Z,15.83
2019-06-01T22:43:47.340Z,15.71
2019-06-01T22:46:14.593Z,15.60
2019-06-01T22:48:41.834Z,15.68
2019-06-01T22:51:09.090Z,15.60
2019-06-01T22:53:36.364Z,15.58
2019-06-01T22:56:03.650Z,15.60
2019-06-01T22:58:31.607Z,15.69
2019-06-01T23:00:59.442Z,15.67
2019-06-01T23:03:28.112Z,15.68
2019-06-01T23:05:55.629Z,15.61
2019-06-01T23:08:25.355Z,15.67
2019-06-01T23:10:52.894Z,15.58
2019-06-01T23:13:21.239Z,15.59
2019-06-01T23:15:48.804Z,15.50
2019-06-01T23:18:16.152Z,15.51
2019-06-01T23:20:43.817Z,15.36
2019-06-01T23:23:11.121Z,15.18
2019-06-01T23:25:38.535Z,15.24
2019-06-01T23:28:05.767Z,15.28
2019-06-01T23:30:33.072Z,15.17
2019-06-01T23:33:00.301Z,15.10
2019-06-01T23:35:28.585Z,15.07
2019-06-01T23:37:55.919Z,15.08
2019-06-01T23:40:24.350Z,15.05
2019-06-01T23:42:51.678Z,14.97
2019-06-01T23:45:18.937Z,15.08
2019-06-01T23:47:46.256Z,15.03
2019-06-01T23:50:13.501Z,14.91
2019-06-01T23:52:40.798Z,14.93
2019-06-01T23:55:08.141Z,14.76
2019-06-01T23:57:35.540Z,14.71
